createdAt,value
2022-09-26T00:01:19.662Z,44.40
2022-09-26T00:03:21.769Z,36.50
2022-09-26T00:05:23.378Z,35.77
2022-09-26T00:07:25.040Z,40.60
2022-09-26T00:09:27.858Z,38.00
2022-09-26T00:11:32.339Z,41.60
2022-09-26T00:13:36.874Z,53.10
2022-09-26T00:15:39.386Z,32.90
2022-09-26T00:17:41.006Z,35.03
2022-09-26T00:19:43.161Z,42.10
2022-09-26T00:21:45.142Z,37.70
2022-09-26T00:23:47.568Z,39.67
2022-09-26T00:25:51.582Z,47.17
2022-09-26T00:27:53.177Z,46.17
2022-09-26T00:29:54.830Z,54.33
2022-09-26T00:31:56.685Z,48.30
2022-09-26T00:34:00.110Z,46.27
2022-09-26T00:36:02.705Z,49.33
2022-09-26T00:38:05.549Z,48.47
2022-09-26T00:40:07.959Z,56.50
2022-09-26T00:42:15.998Z,55.93
2022-09-26T00:44:48.290Z,51.63
2022-09-26T00:46:51.101Z,47.97
2022-09-26T00:49:20.054Z,47.53
2022-09-26T00:51:23.211Z,55.77
2022-09-26T00:53:30.242Z,52.63
2022-09-26T00:55:36.255Z,49.43
2022-09-26T00:57:52.222Z,54.47
2022-09-26T01:00:00.019Z,56.67
2022-09-26T01:02:02.568Z,64.60
2022-09-26T01:04:06.717Z,57.40
2022-09-26T01:06:09.584Z,39.13
2022-09-26T01:08:13.180Z,38.03
2022-09-26T01:10:16.525Z,35.73
2022-09-26T01:12:20.966Z,46.60
2022-09-26T01:14:24.913Z,41.33
2022-09-26T01:16:27.187Z,35.30
2022-09-26T01:18:29.486Z,34.57
2022-09-26T01:20:50.525Z,33.83
2022-09-26T01:23:15.100Z,36.20
2022-09-26T01:25:54.067Z,36.20
2022-09-26T01:28:04.707Z,36.00
2022-09-26T01:30:26.312Z,33.23
2022-09-26T01:32:53.923Z,35.30
2022-09-26T01:35:21.473Z,32.27
2022-09-26T01:37:42.227Z,35.60
2022-09-26T01:40:02.594Z,28.77
2022-09-26T01:42:36.838Z,30.90
2022-09-26T01:45:11.200Z,30.87
2022-09-26T01:47:28.331Z,24.67
2022-09-26T01:49:44.937Z,28.90
2022-09-26T01:52:00.228Z,30.17
2022-09-26T01:54:05.036Z,29.77
2022-09-26T01:56:17.728Z,34.83
2022-09-26T01:58:23.151Z,25.73
2022-09-26T02:00:25.062Z,38.80
2022-09-26T02:02:32.607Z,29.83
2022-09-26T02:04:42.699Z,29.73
2022-09-26T02:06:51.426Z,30.40
2022-09-26T02:09:00.527Z,29.80
2022-09-26T02:11:06.129Z,41.27
2022-09-26T02:13:23.218Z,32.40
2022-09-26T02:15:27.390Z,33.43
2022-09-26T02:17:37.848Z,34.20
2022-09-26T02:19:43.458Z,35.50
2022-09-26T02:21:45.816Z,30.20
2022-09-26T02:23:53.018Z,40.80
2022-09-26T02:25:54.839Z,31.13
2022-09-26T02:27:57.198Z,38.70
2022-09-26T02:29:59.170Z,38.27
2022-09-26T02:32:17.231Z,32.47
2022-09-26T02:34:18.899Z,38.27
2022-09-26T02:36:21.740Z,34.33
2022-09-26T02:38:32.235Z,37.33
2022-09-26T02:40:57.089Z,46.83
2022-09-26T02:43:40.257Z,45.40
2022-09-26T02:46:02.347Z,55.83
2022-09-26T02:48:09.800Z,46.97
2022-09-26T02:50:25.458Z,39.90
2022-09-26T02:52:49.569Z,35.13
2022-09-26T02:55:16.470Z,35.80
2022-09-26T02:57:44.810Z,41.13
2022-09-26T03:00:09.209Z,37.43
2022-09-26T03:02:26.106Z,30.67
2022-09-26T03:04:39.312Z,30.70
2022-09-26T03:06:46.533Z,31.73
2022-09-26T03:08:50.267Z,35.93
2022-09-26T03:10:54.340Z,29.63
2022-09-26T03:13:03.092Z,25.60
2022-09-26T03:15:07.199Z,26.17
2022-09-26T03:17:09.915Z,29.10
2022-09-26T03:19:27.275Z,27.33
2022-09-26T03:21:31.071Z,29.30
2022-09-26T03:23:35.592Z,29.60
2022-09-26T03:25:38.117Z,19.67
2022-09-26T03:27:43.917Z,22.40
2022-09-26T03:29:45.915Z,27.27
2022-09-26T03:31:50.415Z,24.07
2022-09-26T03:33:54.034Z,27.10
2022-09-26T03:35:56.951Z,29.47
2022-09-26T03:37:58.878Z,21.30
2022-09-26T03:40:03.016Z,27.57
2022-09-26T03:42:05.266Z,28.30
2022-09-26T03:44:07.307Z,21.33
2022-09-26T03:46:09.364Z,26.77
2022-09-26T03:48:11.751Z,28.03
2022-09-26T03:50:15.214Z,22.67
2022-09-26T03:52:17.493Z,31.57
2022-09-26T03:54:19.246Z,26.17
2022-09-26T03:56:21.690Z,34.30
2022-09-26T03:58:24.679Z,32.67
2022-09-26T04:00:27.568Z,36.10
2022-09-26T04:02:29.454Z,23.53
2022-09-26T04:04:32.217Z,29.00
2022-09-26T04:06:33.975Z,25.57
2022-09-26T04:08:40.567Z,21.20
2022-09-26T04:10:44.191Z,26.50
2022-09-26T04:12:45.959Z,31.87
2022-09-26T04:14:47.659Z,25.33
2022-09-26T04:16:49.384Z,28.73
2022-09-26T04:18:59.105Z,29.00
2022-09-26T04:21:10.042Z,29.27
2022-09-26T04:23:11.908Z,36.63
2022-09-26T04:25:14.470Z,28.73
2022-09-26T04:27:16.143Z,30.70
2022-09-26T04:29:18.209Z,38.50
2022-09-26T04:31:21.503Z,38.80
2022-09-26T04:33:23.269Z,35.00
2022-09-26T04:35:25.482Z,35.77
2022-09-26T04:37:27.622Z,36.83
2022-09-26T04:39:29.614Z,34.47
2022-09-26T04:41:32.272Z,34.43
2022-09-26T04:43:35.971Z,38.93
2022-09-26T04:45:42.195Z,26.43
2022-09-26T04:47:44.044Z,21.57
2022-09-26T04:49:47.606Z,21.07
2022-09-26T04:51:49.682Z,22.00
2022-09-26T04:53:53.281Z,37.17
2022-09-26T04:55:55.709Z,19.40
2022-09-26T04:57:58.469Z,20.53
2022-09-26T05:00:02.102Z,23.07
2022-09-26T05:02:05.658Z,16.17
2022-09-26T05:04:08.279Z,19.90
2022-09-26T05:06:11.398Z,24.10
2022-09-26T05:08:14.466Z,20.50
2022-09-26T05:10:16.341Z,20.40
2022-09-26T05:12:19.222Z,29.93
2022-09-26T05:14:21.081Z,32.30
2022-09-26T05:16:25.265Z,35.43
2022-09-26T05:18:28.050Z,29.40
2022-09-26T05:20:31.574Z,40.80
2022-09-26T05:22:35.604Z,36.37
2022-09-26T05:24:59.464Z,40.60
2022-09-26T05:27:01.382Z,39.17
2022-09-26T05:29:08.499Z,39.10
2022-09-26T05:31:10.880Z,29.63
2022-09-26T05:33:13.437Z,38.60
2022-09-26T05:35:15.227Z,41.87
2022-09-26T05:37:17.527Z,38.70
2022-09-26T05:39:42.255Z,35.13
2022-09-26T05:41:44.151Z,39.80
2022-09-26T05:43:49.687Z,48.63
2022-09-26T05:45:51.388Z,48.30
2022-09-26T05:47:53.005Z,84.30
2022-09-26T05:49:54.717Z,46.83
2022-09-26T05:51:57.108Z,122.47
2022-09-26T05:53:59.202Z,80.87
2022-09-26T05:56:01.198Z,60.90
2022-09-26T05:58:03.358Z,46.83
2022-09-26T06:00:05.540Z,32.33
2022-09-26T06:02:09.150Z,38.37
2022-09-26T06:04:11.767Z,36.77
2022-09-26T06:06:19.533Z,38.53
2022-09-26T06:08:21.534Z,31.90
2022-09-26T06:10:23.693Z,36.43
2022-09-26T06:12:28.134Z,35.33
2022-09-26T06:14:29.779Z,28.23
2022-09-26T06:16:32.051Z,30.03
2022-09-26T06:18:37.874Z,28.23
2022-09-26T06:20:39.459Z,26.50
2022-09-26T06:22:43.158Z,25.27
2022-09-26T06:24:45.482Z,27.97
2022-09-26T06:26:47.894Z,21.40
2022-09-26T06:28:55.681Z,17.63
2022-09-26T06:30:57.806Z,18.47
2022-09-26T06:33:01.698Z,17.77
2022-09-26T06:35:05.128Z,18.57
2022-09-26T06:37:10.550Z,15.83
2022-09-26T06:39:12.988Z,14.60
2022-09-26T06:41:18.256Z,15.80
2022-09-26T06:43:19.870Z,12.57
2022-09-26T06:45:22.341Z,9.83
2022-09-26T06:47:24.149Z,8.97
2022-09-26T06:49:26.004Z,9.70
2022-09-26T06:51:28.475Z,10.73
2022-09-26T06:53:30.910Z,12.97
2022-09-26T06:55:33.593Z,7.77
2022-09-26T06:57:41.012Z,5.50
2022-09-26T06:59:42.635Z,14.97
2022-09-26T07:01:46.157Z,5.93
2022-09-26T07:03:47.951Z,6.23
2022-09-26T07:05:49.805Z,10.97
2022-09-26T07:07:53.260Z,10.03
2022-09-26T07:09:57.975Z,7.40
2022-09-26T07:12:15.960Z,8.00
2022-09-26T07:14:22.008Z,7.00
2022-09-26T07:16:23.880Z,6.60
2022-09-26T07:18:26.678Z,7.70
2022-09-26T07:20:34.042Z,7.27
2022-09-26T07:22:37.257Z,8.00
2022-09-26T07:24:39.721Z,8.73
2022-09-26T07:26:42.096Z,5.60
2022-09-26T07:28:44.900Z,6.07
2022-09-26T07:30:47.936Z,6.20
2022-09-26T07:32:50.103Z,6.70
2022-09-26T07:34:53.159Z,4.43
2022-09-26T07:36:55.410Z,5.23
2022-09-26T07:38:58.048Z,6.00
2022-09-26T07:41:02.226Z,5.70
2022-09-26T07:43:19.170Z,5.83
2022-09-26T07:45:42.497Z,5.70
2022-09-26T07:48:03.145Z,7.00
2022-09-26T07:50:13.255Z,5.70
2022-09-26T07:52:14.976Z,9.53
2022-09-26T07:54:18.678Z,5.30
2022-09-26T07:56:23.183Z,5.03
2022-09-26T07:58:27.929Z,5.00
2022-09-26T08:00:31.358Z,4.73
2022-09-26T08:02:35.104Z,5.47
2022-09-26T08:04:36.907Z,5.47
2022-09-26T08:06:38.582Z,6.20
2022-09-26T08:08:41.515Z,5.43
2022-09-26T08:10:43.700Z,5.40
2022-09-26T08:12:46.135Z,5.50
2022-09-26T08:14:49.890Z,5.90
2022-09-26T08:16:55.718Z,5.00
2022-09-26T08:18:58.611Z,24.70
2022-09-26T08:21:05.803Z,5.33
2022-09-26T08:23:10.630Z,10.30
2022-09-26T08:25:12.875Z,6.17
2022-09-26T08:27:15.330Z,6.20
2022-09-26T08:29:18.064Z,5.10
2022-09-26T08:31:21.405Z,6.90
2022-09-26T08:33:25.108Z,4.53
2022-09-26T08:35:41.506Z,5.57
2022-09-26T08:37:43.634Z,5.40
2022-09-26T08:39:49.014Z,9.70
2022-09-26T08:42:23.740Z,8.37
2022-09-26T08:44:38.717Z,6.10
2022-09-26T08:47:02.555Z,4.97
2022-09-26T08:49:24.273Z,6.23
2022-09-26T08:51:42.151Z,4.90
2022-09-26T08:53:52.287Z,6.27
2022-09-26T08:55:57.080Z,5.17
2022-09-26T08:58:17.411Z,3.83
2022-09-26T09:00:26.614Z,6.43
2022-09-26T09:02:39.714Z,4.87
2022-09-26T09:04:52.981Z,4.20
2022-09-26T09:07:05.543Z,7.43
2022-09-26T09:09:08.748Z,5.50
2022-09-26T09:11:13.603Z,10.03
2022-09-26T09:13:23.202Z,6.20
2022-09-26T09:15:30.706Z,5.27
2022-09-26T09:17:59.290Z,7.30
2022-09-26T09:20:22.340Z,5.17
2022-09-26T09:22:32.473Z,5.87
2022-09-26T09:24:56.223Z,6.20
2022-09-26T09:29:56.843Z,4.83
2022-09-26T09:32:03.670Z,6.40
2022-09-26T09:34:10.274Z,5.47
2022-09-26T09:36:17.936Z,7.20
2022-09-26T09:38:28.170Z,6.40
2022-09-26T09:40:40.488Z,4.50
2022-09-26T09:42:57.683Z,7.03
2022-09-26T09:45:31.427Z,6.10
2022-09-26T09:47:38.965Z,7.10
2022-09-26T09:49:42.434Z,6.47
2022-09-26T09:51:56.234Z,6.33
2022-09-26T09:54:16.737Z,5.57
2022-09-26T09:56:27.706Z,4.60
2022-09-26T09:58:41.713Z,6.80
2022-09-26T10:00:52.046Z,5.20
2022-09-26T10:03:02.185Z,5.40
2022-09-26T10:05:23.373Z,4.97
2022-09-26T10:07:25.724Z,6.10
2022-09-26T10:09:36.441Z,6.93
2022-09-26T10:11:46.992Z,4.50
2022-09-26T10:13:56.819Z,7.07
2022-09-26T10:16:05.912Z,3.70
2022-09-26T10:18:24.803Z,7.53
2022-09-26T10:20:40.003Z,6.20
2022-09-26T10:22:45.355Z,7.90
2022-09-26T10:24:47.916Z,8.63
2022-09-26T10:26:52.084Z,7.40
2022-09-26T10:28:57.270Z,5.27
2022-09-26T10:31:07.663Z,4.13
2022-09-26T10:33:25.230Z,4.27
2022-09-26T10:35:41.712Z,6.40
2022-09-26T10:37:43.451Z,5.30
2022-09-26T10:40:11.752Z,3.63
2022-09-26T10:42:20.288Z,5.03
2022-09-26T10:44:35.219Z,5.27
2022-09-26T10:46:36.993Z,5.27
2022-09-26T10:48:52.027Z,4.33
2022-09-26T10:51:00.833Z,5.30
2022-09-26T10:53:11.875Z,4.00
2022-09-26T10:55:20.831Z,4.00
2022-09-26T10:57:29.083Z,4.30
2022-09-26T10:59:32.846Z,5.53
2022-09-26T11:01:41.412Z,4.10
2022-09-26T11:03:46.398Z,4.77
2022-09-26T11:05:57.447Z,2.80
2022-09-26T11:07:59.130Z,5.67
2022-09-26T11:10:06.516Z,8.77
2022-09-26T11:12:29.915Z,5.80
2022-09-26T11:14:34.303Z,4.80
2022-09-26T11:16:53.156Z,3.50
2022-09-26T11:19:06.168Z,4.20
2022-09-26T11:21:29.163Z,3.60
2022-09-26T11:23:44.650Z,5.10
2022-09-26T11:25:58.504Z,6.03
2022-09-26T11:28:10.282Z,10.17
2022-09-26T11:30:15.068Z,4.73
2022-09-26T11:32:24.271Z,3.03
2022-09-26T11:34:31.492Z,3.07
2022-09-26T11:36:47.042Z,9.03
2022-09-26T11:39:31.894Z,3.10
2022-09-26T11:41:45.540Z,3.47
2022-09-26T11:44:23.409Z,4.87
2022-09-26T11:46:57.961Z,4.50
2022-09-26T11:49:21.975Z,4.93
2022-09-26T11:51:45.606Z,3.27
2022-09-26T11:54:04.094Z,5.27
2022-09-26T11:56:27.691Z,8.40
2022-09-26T11:58:59.409Z,2.90
2022-09-26T12:01:17.309Z,4.00
2022-09-26T12:03:56.821Z,2.93
2022-09-26T12:06:01.671Z,4.00
2022-09-26T12:08:41.317Z,3.43
2022-09-26T12:10:57.740Z,3.30
2022-09-26T12:13:05.073Z,3.97
2022-09-26T12:15:15.152Z,6.00
2022-09-26T12:17:41.156Z,3.03
2022-09-26T12:19:55.752Z,3.17
2022-09-26T12:22:29.956Z,7.43
2022-09-26T12:25:05.030Z,3.07
2022-09-26T12:27:31.667Z,2.93
2022-09-26T12:29:48.711Z,6.43
2022-09-26T12:32:47.477Z,4.83
2022-09-26T12:35:11.555Z,4.00
2022-09-26T12:37:49.195Z,6.13
2022-09-26T12:40:00.566Z,3.07
2022-09-26T12:42:39.471Z,3.03
2022-09-26T12:45:07.569Z,4.33
2022-09-26T12:47:57.838Z,3.10
2022-09-26T12:50:31.302Z,3.30
2022-09-26T12:53:02.060Z,3.77
2022-09-26T12:55:24.863Z,7.77
2022-09-26T12:58:04.277Z,4.20
2022-09-26T13:00:23.294Z,4.70
2022-09-26T13:02:56.648Z,3.97
2022-09-26T13:05:27.346Z,2.80
2022-09-26T13:08:02.547Z,4.20
2022-09-26T13:10:36.821Z,3.70
2022-09-26T13:13:00.050Z,6.60
2022-09-26T13:15:36.136Z,8.20
2022-09-26T13:17:45.902Z,3.90
2022-09-26T13:19:53.912Z,3.37
2022-09-26T13:22:02.205Z,3.43
2022-09-26T13:24:13.719Z,5.30
2022-09-26T13:26:25.938Z,3.40
2022-09-26T13:29:00.593Z,3.03
2022-09-26T13:31:31.794Z,3.37
2022-09-26T13:33:41.576Z,2.80
2022-09-26T13:35:47.711Z,4.20
2022-09-26T13:38:09.331Z,2.60
2022-09-26T13:40:31.950Z,2.40
2022-09-26T13:42:48.923Z,2.70
2022-09-26T13:45:24.997Z,2.50
2022-09-26T13:47:46.392Z,3.60
2022-09-26T13:50:09.802Z,2.67
2022-09-26T13:52:34.702Z,2.57
2022-09-26T13:54:45.273Z,3.60
2022-09-26T13:56:49.570Z,2.27
2022-09-26T13:59:04.409Z,3.70
2022-09-26T14:01:28.887Z,2.20
2022-09-26T14:03:38.911Z,2.10
2022-09-26T14:05:52.341Z,3.43
2022-09-26T14:08:13.528Z,5.70
2022-09-26T14:10:20.500Z,2.10
2022-09-26T14:12:55.591Z,8.50
2022-09-26T14:15:16.931Z,2.57
2022-09-26T14:17:44.318Z,2.30
2022-09-26T14:19:54.090Z,3.37
2022-09-26T14:22:18.360Z,3.13
2022-09-26T14:24:41.293Z,2.30
2022-09-26T14:26:44.535Z,2.70
2022-09-26T14:29:10.967Z,3.33
2022-09-26T14:31:25.348Z,2.90
2022-09-26T14:33:28.995Z,7.37
2022-09-26T14:35:34.253Z,3.27
2022-09-26T14:37:42.171Z,2.80
2022-09-26T14:39:45.928Z,3.90
2022-09-26T14:41:47.925Z,3.63
2022-09-26T14:43:54.205Z,2.50
2022-09-26T14:46:05.330Z,2.73
2022-09-26T14:48:20.662Z,2.90
2022-09-26T14:50:36.034Z,4.43
2022-09-26T14:52:38.586Z,2.70
2022-09-26T14:54:42.226Z,2.60
2022-09-26T14:56:48.510Z,3.07
2022-09-26T14:58:51.575Z,2.60
2022-09-26T15:00:55.855Z,3.17
2022-09-26T15:03:00.874Z,3.07
2022-09-26T15:05:11.692Z,2.47
2022-09-26T15:07:22.570Z,4.73
2022-09-26T15:09:33.040Z,3.53
2022-09-26T15:11:49.309Z,2.70
2022-09-26T15:13:53.038Z,3.83
2022-09-26T15:16:32.381Z,2.37
2022-09-26T15:18:44.712Z,4.03
2022-09-26T15:20:54.770Z,2.53
2022-09-26T15:22:58.431Z,3.07
2022-09-26T15:25:20.180Z,4.30
2022-09-26T15:27:29.171Z,2.30
2022-09-26T15:29:31.191Z,2.77
2022-09-26T15:31:44.482Z,2.50
2022-09-26T15:34:04.254Z,2.80
2022-09-26T15:36:07.238Z,4.50
2022-09-26T15:38:11.906Z,4.60
2022-09-26T15:40:18.587Z,4.43
2022-09-26T15:42:42.572Z,2.47
2022-09-26T15:44:56.408Z,2.57
2022-09-26T15:46:58.958Z,4.40
2022-09-26T15:49:00.668Z,4.83
2022-09-26T15:51:02.307Z,2.30
2022-09-26T15:53:20.954Z,4.73
2022-09-26T15:55:28.281Z,2.73
2022-09-26T15:57:30.915Z,2.60
2022-09-26T15:59:41.470Z,1.90
2022-09-26T16:01:48.586Z,2.57
2022-09-26T16:04:13.976Z,3.37
2022-09-26T16:06:29.868Z,2.63
2022-09-26T16:08:37.668Z,5.27
2022-09-26T16:10:39.690Z,2.50
2022-09-26T16:12:41.849Z,2.10
2022-09-26T16:15:16.926Z,2.67
2022-09-26T16:17:37.430Z,3.00
2022-09-26T16:19:54.162Z,3.70
2022-09-26T16:21:56.685Z,4.17
2022-09-26T16:24:01.297Z,2.37
2022-09-26T16:26:03.049Z,3.27
2022-09-26T16:28:11.022Z,6.70
2022-09-26T16:30:25.378Z,3.70
2022-09-26T16:32:31.764Z,2.77
2022-09-26T16:34:33.479Z,2.73
2022-09-26T16:36:42.262Z,2.50
2022-09-26T16:38:51.339Z,3.30
2022-09-26T16:40:56.506Z,8.50
2022-09-26T16:43:12.665Z,4.03
2022-09-26T16:45:15.241Z,5.70
2022-09-26T16:47:44.737Z,3.60
2022-09-26T16:49:48.358Z,2.70
2022-09-26T16:52:13.984Z,6.13
2022-09-26T16:54:21.728Z,4.70
2022-09-26T16:56:25.390Z,3.70
2022-09-26T16:58:29.529Z,3.37
2022-09-26T17:00:53.623Z,4.33
2022-09-26T17:02:56.906Z,4.43
2022-09-26T17:04:58.589Z,4.10
2022-09-26T17:07:05.168Z,4.63
2022-09-26T17:09:24.254Z,2.70
2022-09-26T17:11:26.758Z,5.23
2022-09-26T17:13:32.903Z,3.37
2022-09-26T17:15:35.499Z,4.63
2022-09-26T17:17:38.231Z,4.97
2022-09-26T17:19:41.679Z,9.03
2022-09-26T17:21:45.271Z,17.33
2022-09-26T17:23:49.035Z,8.33
2022-09-26T17:25:56.786Z,7.10
2022-09-26T17:28:02.131Z,2.80
2022-09-26T17:30:09.357Z,2.77
2022-09-26T17:32:35.192Z,4.63
2022-09-26T17:34:37.564Z,2.93
2022-09-26T17:36:47.282Z,4.60
2022-09-26T17:38:50.081Z,2.50
2022-09-26T17:40:51.879Z,4.87
2022-09-26T17:42:56.439Z,4.70
2022-09-26T17:44:58.427Z,3.40
2022-09-26T17:47:00.748Z,3.30
2022-09-26T17:49:05.465Z,3.33
2022-09-26T17:51:11.900Z,3.03
2022-09-26T17:53:20.951Z,3.40
2022-09-26T17:55:24.213Z,5.30
2022-09-26T17:57:30.297Z,3.70
2022-09-26T17:59:33.710Z,3.13
2022-09-26T18:01:35.569Z,2.50
2022-09-26T18:03:40.440Z,2.80
2022-09-26T18:05:43.211Z,3.50
2022-09-26T18:07:46.101Z,3.20
2022-09-26T18:09:51.140Z,4.20
2022-09-26T18:12:01.947Z,2.77
2022-09-26T18:14:08.140Z,3.10
2022-09-26T18:16:11.798Z,2.73
2022-09-26T18:18:17.674Z,3.93
2022-09-26T18:20:23.044Z,4.80
2022-09-26T18:22:31.561Z,4.10
2022-09-26T18:24:33.449Z,5.00
2022-09-26T18:26:51.305Z,2.83
2022-09-26T18:28:55.807Z,5.47
2022-09-26T18:31:00.850Z,2.83
2022-09-26T18:33:04.674Z,5.27
2022-09-26T18:35:24.186Z,5.13
2022-09-26T18:37:26.274Z,3.07
2022-09-26T18:39:29.560Z,3.70
2022-09-26T18:41:31.809Z,3.50
2022-09-26T18:43:40.444Z,4.20
2022-09-26T18:45:43.001Z,4.63
2022-09-26T18:47:45.909Z,3.70
2022-09-26T18:49:47.698Z,3.20
2022-09-26T18:51:50.142Z,6.37
2022-09-26T18:53:51.823Z,14.63
2022-09-26T18:56:12.110Z,3.00
2022-09-26T18:58:28.433Z,4.13
2022-09-26T19:00:30.158Z,5.53
2022-09-26T19:02:39.027Z,6.53
2022-09-26T19:04:40.963Z,6.60
2022-09-26T19:06:45.618Z,4.10
2022-09-26T19:08:52.982Z,3.00
2022-09-26T19:10:55.513Z,3.37
2022-09-26T19:13:00.557Z,4.40
2022-09-26T19:15:05.379Z,4.00
2022-09-26T19:17:07.073Z,3.80
2022-09-26T19:19:08.955Z,3.03
2022-09-26T19:21:32.287Z,3.30
2022-09-26T19:23:36.935Z,3.03
2022-09-26T19:25:39.111Z,4.90
2022-09-26T19:27:49.550Z,3.70
2022-09-26T19:30:06.537Z,2.87
2022-09-26T19:32:23.090Z,4.00
2022-09-26T19:34:28.227Z,6.30
2022-09-26T19:36:33.590Z,11.97
2022-09-26T19:38:35.214Z,4.73
2022-09-26T19:40:37.562Z,3.40
2022-09-26T19:42:39.528Z,4.63
2022-09-26T19:44:42.482Z,4.43
2022-09-26T19:46:46.418Z,4.00
2022-09-26T19:48:48.927Z,3.17
2022-09-26T19:50:52.495Z,7.03
2022-09-26T19:52:58.398Z,3.50
2022-09-26T19:55:01.422Z,5.07
2022-09-26T19:57:03.723Z,5.50
2022-09-26T19:59:06.506Z,2.70
2022-09-26T20:01:18.715Z,2.90
2022-09-26T20:03:39.894Z,3.30
2022-09-26T20:05:42.211Z,5.37
2022-09-26T20:07:45.546Z,3.20
2022-09-26T20:09:47.618Z,3.57
2022-09-26T20:11:49.651Z,3.23
2022-09-26T20:14:10.547Z,3.30
2022-09-26T20:16:12.467Z,3.03
2022-09-26T20:18:23.333Z,2.93
2022-09-26T20:20:26.253Z,3.30
2022-09-26T20:22:28.437Z,3.00
2022-09-26T20:24:32.325Z,2.63
2022-09-26T20:26:35.570Z,3.27
2022-09-26T20:28:37.390Z,2.60
2022-09-26T20:31:00.143Z,4.40
2022-09-26T20:33:02.730Z,4.30
2022-09-26T20:35:05.420Z,3.00
2022-09-26T20:37:10.672Z,3.60
2022-09-26T20:39:17.030Z,3.57
2022-09-26T20:41:31.942Z,3.70
2022-09-26T20:43:37.005Z,4.80
2022-09-26T20:45:40.915Z,3.37
2022-09-26T20:47:44.804Z,3.50
2022-09-26T20:49:52.826Z,6.30
2022-09-26T20:51:57.029Z,2.50
2022-09-26T20:53:59.782Z,2.63
2022-09-26T20:56:03.828Z,4.93
2022-09-26T20:58:06.526Z,3.10
2022-09-26T21:00:17.785Z,5.60
2022-09-26T21:02:25.841Z,3.10
2022-09-26T21:04:32.514Z,4.73
2022-09-26T21:06:35.735Z,4.03
2022-09-26T21:08:37.392Z,3.50
2022-09-26T21:10:39.326Z,4.57
2022-09-26T21:12:42.862Z,5.00
2022-09-26T21:14:44.814Z,4.77
2022-09-26T21:16:52.033Z,4.63
2022-09-26T21:18:53.956Z,3.30
2022-09-26T21:21:03.505Z,2.30
2022-09-26T21:23:05.799Z,4.40
2022-09-26T21:25:14.869Z,3.00
2022-09-26T21:27:17.784Z,3.17
2022-09-26T21:29:19.609Z,2.90
2022-09-26T21:31:33.200Z,4.70
2022-09-26T21:33:35.202Z,3.27
2022-09-26T21:35:38.709Z,2.40
2022-09-26T21:37:43.151Z,5.80
2022-09-26T21:39:44.958Z,4.47
2022-09-26T21:41:49.386Z,3.23
2022-09-26T21:44:01.994Z,3.50
2022-09-26T21:46:03.796Z,2.53
2022-09-26T21:48:05.481Z,2.90
2022-09-26T21:50:08.487Z,4.13
2022-09-26T21:52:22.293Z,7.93
2022-09-26T21:54:37.246Z,4.47
2022-09-26T21:56:49.475Z,6.43
2022-09-26T21:58:51.646Z,6.83
2022-09-26T22:00:53.687Z,7.67
2022-09-26T22:02:59.580Z,11.67
2022-09-26T22:05:01.396Z,11.97
2022-09-26T22:07:03.111Z,14.43
2022-09-26T22:09:04.907Z,12.30
2022-09-26T22:11:09.128Z,14.20
2022-09-26T22:13:10.889Z,14.33
2022-09-26T22:15:13.022Z,17.63
2022-09-26T22:17:15.009Z,9.60
2022-09-26T22:19:17.011Z,19.60
2022-09-26T22:21:19.002Z,15.10
2022-09-26T22:23:21.781Z,11.20
2022-09-26T22:25:23.421Z,19.10
2022-09-26T22:27:25.867Z,9.83
2022-09-26T22:29:27.617Z,15.23
2022-09-26T22:31:29.385Z,13.10
2022-09-26T22:33:32.961Z,11.53
2022-09-26T22:35:36.001Z,6.20
2022-09-26T22:37:39.276Z,4.70
2022-09-26T22:39:41.359Z,6.63
2022-09-26T22:41:43.039Z,5.73
2022-09-26T22:43:45.142Z,4.90
2022-09-26T22:45:46.845Z,5.03
2022-09-26T22:47:48.560Z,4.20
2022-09-26T22:49:50.323Z,3.90
2022-09-26T22:51:52.751Z,3.50
2022-09-26T22:53:54.518Z,2.80
2022-09-26T22:55:57.492Z,5.63
2022-09-26T22:57:59.185Z,2.63
2022-09-26T23:00:01.870Z,2.80
2022-09-26T23:02:06.014Z,4.63
2022-09-26T23:04:08.044Z,4.27
2022-09-26T23:06:11.027Z,3.30
2022-09-26T23:08:13.510Z,3.33
2022-09-26T23:10:15.289Z,3.70
2022-09-26T23:12:17.076Z,3.87
2022-09-26T23:14:18.825Z,2.90
2022-09-26T23:16:24.309Z,5.50
2022-09-26T23:18:27.089Z,3.20
2022-09-26T23:20:28.927Z,3.37
2022-09-26T23:22:30.821Z,2.63
2022-09-26T23:24:32.505Z,5.20
2022-09-26T23:26:34.870Z,2.87
2022-09-26T23:28:36.954Z,3.60
2022-09-26T23:30:40.049Z,3.83
2022-09-26T23:32:41.789Z,3.33
2022-09-26T23:34:43.507Z,2.90
2022-09-26T23:36:45.149Z,3.30
2022-09-26T23:38:47.459Z,3.17
2022-09-26T23:40:49.191Z,3.20
2022-09-26T23:42:51.214Z,3.00
2022-09-26T23:44:53.342Z,2.07
2022-09-26T23:46:55.525Z,2.50
2022-09-26T23:48:57.234Z,2.57
2022-09-26T23:50:59.246Z,2.73
2022-09-26T23:53:06.316Z,2.60
2022-09-26T23:55:08.757Z,2.37
2022-09-26T23:57:11.110Z,7.20
2022-09-26T23:59:13.320Z,2.27
